sensor_id;sensor_type;location;lat;lon;timestamp;pressure;altitude;pressure_sealevel;temperature;humidity
82388;BME280;72027;47.420;9.310;2023-12-20T00:01:36;93567.03;;;-0.01;86.08
82388;BME280;72027;47.420;9.310;2023-12-20T00:04:03;93571.31;;;0.00;86.85
82388;BME280;72027;47.420;9.310;2023-12-20T00:06:31;93564.28;;;0.03;86.27
82388;BME280;72027;47.420;9.310;2023-12-20T00:08:59;93558.47;;;0.04;86.69
82388;BME280;72027;47.420;9.310;2023-12-20T00:11:28;93548.34;;;0.05;86.06
82388;BME280;72027;47.420;9.310;2023-12-20T00:13:56;93549.50;;;0.04;86.05
82388;BME280;72027;47.420;9.310;2023-12-20T00:16:24;93549.91;;;0.06;86.98
82388;BME280;72027;47.420;9.310;2023-12-20T00:18:52;93546.75;;;0.07;86.71
82388;BME280;72027;47.420;9.310;2023-12-20T00:21:20;93544.44;;;0.09;86.02
82388;BME280;72027;47.420;9.310;2023-12-20T00:23:47;93553.38;;;0.10;86.46
82388;BME280;72027;47.420;9.310;2023-12-20T00:26:15;93543.66;;;0.09;86.10
82388;BME280;72027;47.420;9.310;2023-12-20T00:28:44;93543.25;;;0.10;85.96
82388;BME280;72027;47.420;9.310;2023-12-20T00:31:12;93547.53;;;0.11;86.85
82388;BME280;72027;47.420;9.310;2023-12-20T00:33:42;93541.31;;;0.11;86.37
82388;BME280;72027;47.420;9.310;2023-12-20T00:36:10;93544.03;;;0.11;86.57
82388;BME280;72027;47.420;9.310;2023-12-20T00:38:38;93543.63;;;0.12;87.21
82388;BME280;72027;47.420;9.310;2023-12-20T00:41:06;93549.84;;;0.13;87.21
82388;BME280;72027;47.420;9.310;2023-12-20T00:43:34;93565.44;;;0.12;87.13
82388;BME280;72027;47.420;9.310;2023-12-20T00:46:03;93572.44;;;0.13;87.10
82388;BME280;72027;47.420;9.310;2023-12-20T00:48:31;93576.72;;;0.14;86.36
82388;BME280;72027;47.420;9.310;2023-12-20T00:50:58;93579.03;;;0.12;86.19
82388;BME280;72027;47.420;9.310;2023-12-20T00:53:26;93580.22;;;0.11;86.29
82388;BME280;72027;47.420;9.310;2023-12-20T00:55:54;93580.63;;;0.10;87.07
82388;BME280;72027;47.420;9.310;2023-12-20T00:58:22;93571.28;;;0.11;86.24
82388;BME280;72027;47.420;9.310;2023-12-20T01:00:49;93563.09;;;0.07;85.74
82388;BME280;72027;47.420;9.310;2023-12-20T01:03:19;93560.78;;;0.06;86.75
82388;BME280;72027;47.420;9.310;2023-12-20T01:05:47;93551.06;;;0.01;86.27
82388;BME280;72027;47.420;9.310;2023-12-20T01:08:14;93549.16;;;-0.02;86.82
82388;BME280;72027;47.420;9.310;2023-12-20T01:10:42;93532.03;;;-0.06;87.05
82388;BME280;72027;47.420;9.310;2023-12-20T01:13:10;93536.72;;;-0.07;87.08
82388;BME280;72027;47.420;9.310;2023-12-20T01:15:38;93537.91;;;-0.08;87.29
82388;BME280;72027;47.420;9.310;2023-12-20T01:18:05;93537.91;;;-0.08;86.91
82388;BME280;72027;47.420;9.310;2023-12-20T01:20:34;93539.44;;;-0.07;87.25
82388;BME280;72027;47.420;9.310;2023-12-20T01:23:03;93538.25;;;-0.06;87.34
82388;BME280;72027;47.420;9.310;2023-12-20T01:25:30;93535.53;;;-0.06;87.29
82388;BME280;72027;47.420;9.310;2023-12-20T01:27:58;93535.16;;;-0.04;87.30
82388;BME280;72027;47.420;9.310;2023-12-20T01:30:26;93542.13;;;0.01;87.38
82388;BME280;72027;47.420;9.310;2023-12-20T01:32:53;93537.84;;;0.03;87.58
82388;BME280;72027;47.420;9.310;2023-12-20T01:35:21;93551.81;;;0.05;86.67
82388;BME280;72027;47.420;9.310;2023-12-20T01:37:50;93543.28;;;0.07;86.79
82388;BME280;72027;47.420;9.310;2023-12-20T01:40:19;93551.06;;;0.08;87.31
82388;BME280;72027;47.420;9.310;2023-12-20T01:42:47;93554.16;;;0.10;86.19
82388;BME280;72027;47.420;9.310;2023-12-20T01:45:15;93541.69;;;0.13;86.05
82388;BME280;72027;47.420;9.310;2023-12-20T01:47:42;93541.28;;;0.14;86.07
82388;BME280;72027;47.420;9.310;2023-12-20T01:50:10;93540.88;;;0.16;86.20
82388;BME280;72027;47.420;9.310;2023-12-20T01:52:38;93535.06;;;0.17;86.83
82388;BME280;72027;47.420;9.310;2023-12-20T01:55:08;93533.09;;;0.18;85.58
82388;BME280;72027;47.420;9.310;2023-12-20T01:57:40;93538.53;;;0.18;86.91
82388;BME280;72027;47.420;9.310;2023-12-20T02:00:09;93534.66;;;0.19;85.18
82388;BME280;72027;47.420;9.310;2023-12-20T02:02:39;93539.31;;;0.18;85.85
82388;BME280;72027;47.420;9.310;2023-12-20T02:05:08;93530.00;;;0.19;85.65
82388;BME280;72027;47.420;9.310;2023-12-20T02:07:36;93531.53;;;0.20;85.59
82388;BME280;72027;47.420;9.310;2023-12-20T02:10:05;93517.91;;;0.24;85.40
82388;BME280;72027;47.420;9.310;2023-12-20T02:12:34;93515.53;;;0.26;85.55
82388;BME280;72027;47.420;9.310;2023-12-20T02:15:02;93515.53;;;0.30;84.77
82388;BME280;72027;47.420;9.310;2023-12-20T02:17:31;93509.28;;;0.33;85.19
82388;BME280;72027;47.420;9.310;2023-12-20T02:19:59;93512.41;;;0.35;84.97
82388;BME280;72027;47.420;9.310;2023-12-20T02:22:28;93506.53;;;0.40;85.03
82388;BME280;72027;47.420;9.310;2023-12-20T02:24:56;93504.94;;;0.42;85.21
82388;BME280;72027;47.420;9.310;2023-12-20T02:27:24;93490.91;;;0.44;85.20
82388;BME280;72027;47.420;9.310;2023-12-20T02:29:52;93494.41;;;0.48;85.00
82388;BME280;72027;47.420;9.310;2023-12-20T02:32:20;93489.72;;;0.49;84.23
82388;BME280;72027;47.420;9.310;2023-12-20T02:34:48;93499.06;;;0.51;84.85
82388;BME280;72027;47.420;9.310;2023-12-20T02:37:16;93496.72;;;0.53;84.20
82388;BME280;72027;47.420;9.310;2023-12-20T02:39:45;93497.06;;;0.55;83.90
82388;BME280;72027;47.420;9.310;2023-12-20T02:42:13;93494.34;;;0.59;83.67
82388;BME280;72027;47.420;9.310;2023-12-20T02:44:41;93495.84;;;0.63;83.81
82388;BME280;72027;47.420;9.310;2023-12-20T02:47:08;93506.69;;;0.71;82.42
82388;BME280;72027;47.420;9.310;2023-12-20T02:49:36;93498.44;;;0.81;81.71
82388;BME280;72027;47.420;9.310;2023-12-20T02:52:04;93494.84;;;0.92;80.86
82388;BME280;72027;47.420;9.310;2023-12-20T02:54:32;93493.19;;;1.05;80.44
82388;BME280;72027;47.420;9.310;2023-12-20T02:57:02;93495.34;;;1.24;78.25
82388;BME280;72027;47.420;9.310;2023-12-20T02:59:30;93499.06;;;1.45;77.94
82388;BME280;72027;47.420;9.310;2023-12-20T03:01:57;93500.47;;;1.60;77.70
82388;BME280;72027;47.420;9.310;2023-12-20T03:04:25;93501.47;;;1.73;77.69
82388;BME280;72027;47.420;9.310;2023-12-20T03:06:53;93494.72;;;1.85;76.22
82388;BME280;72027;47.420;9.310;2023-12-20T03:09:21;93496.09;;;2.01;75.82
82388;BME280;72027;47.420;9.310;2023-12-20T03:11:49;93491.19;;;2.19;73.72
82388;BME280;72027;47.420;9.310;2023-12-20T03:14:18;93490.16;;;2.36;73.02
82388;BME280;72027;47.420;9.310;2023-12-20T03:16:47;93491.19;;;2.46;72.90
82388;BME280;72027;47.420;9.310;2023-12-20T03:19:15;93490.66;;;2.58;73.40
82388;BME280;72027;47.420;9.310;2023-12-20T03:21:43;93494.44;;;2.64;72.75
82388;BME280;72027;47.420;9.310;2023-12-20T03:24:10;93497.44;;;2.74;73.05
82388;BME280;72027;47.420;9.310;2023-12-20T03:26:38;93502.41;;;2.82;72.52
82388;BME280;72027;47.420;9.310;2023-12-20T03:29:06;93502.28;;;2.90;72.89
82388;BME280;72027;47.420;9.310;2023-12-20T03:31:35;93495.56;;;2.94;72.43
82388;BME280;72027;47.420;9.310;2023-12-20T03:34:03;93508.84;;;2.96;73.75
82388;BME280;72027;47.420;9.310;2023-12-20T03:36:31;93510.81;;;2.95;73.54
82388;BME280;72027;47.420;9.310;2023-12-20T03:38:58;93511.97;;;2.94;74.38
82388;BME280;72027;47.420;9.310;2023-12-20T03:41:26;93522.09;;;2.97;73.99
82388;BME280;72027;47.420;9.310;2023-12-20T03:43:54;93527.56;;;2.97;75.03
82388;BME280;72027;47.420;9.310;2023-12-20T03:46:22;93533.03;;;2.97;75.83
82388;BME280;72027;47.420;9.310;2023-12-20T03:48:51;93540.00;;;3.02;74.76
82388;BME280;72027;47.420;9.310;2023-12-20T03:51:19;93536.09;;;3.03;74.77
82388;BME280;72027;47.420;9.310;2023-12-20T03:53:46;93535.31;;;3.02;76.14
82388;BME280;72027;47.420;9.310;2023-12-20T03:56:14;93542.75;;;3.02;78.30
82388;BME280;72027;47.420;9.310;2023-12-20T03:58:42;93539.19;;;3.05;79.95
82388;BME280;72027;47.420;9.310;2023-12-20T04:01:10;93531.03;;;3.01;80.11
82388;BME280;72027;47.420;9.310;2023-12-20T04:03:38;93532.63;;;2.99;80.69
82388;BME280;72027;47.420;9.310;2023-12-20T04:06:08;93537.38;;;2.95;81.77
82388;BME280;72027;47.420;9.310;2023-12-20T04:08:36;93523.00;;;2.91;82.09
82388;BME280;72027;47.420;9.310;2023-12-20T04:11:04;93523.09;;;2.83;81.11
82388;BME280;72027;47.420;9.310;2023-12-20T04:13:31;93514.19;;;2.79;81.94
82388;BME280;72027;47.420;9.310;2023-12-20T04:15:59;93520.50;;;2.73;82.48
82388;BME280;72027;47.420;9.310;2023-12-20T04:18:27;93518.19;;;2.71;82.54
82388;BME280;72027;47.420;9.310;2023-12-20T04:20:55;93513.19;;;2.66;83.58
82388;BME280;72027;47.420;9.310;2023-12-20T04:23:24;93513.28;;;2.59;84.29
82388;BME280;72027;47.420;9.310;2023-12-20T04:25:52;93525.06;;;2.56;85.15
82388;BME280;72027;47.420;9.310;2023-12-20T04:28:20;93529.78;;;2.52;85.79
82388;BME280;72027;47.420;9.310;2023-12-20T04:30:48;93532.97;;;2.47;86.19
82388;BME280;72027;47.420;9.310;2023-12-20T04:33:16;93537.31;;;2.44;86.06
82388;BME280;72027;47.420;9.310;2023-12-20T04:35:43;93534.22;;;2.42;86.48
82388;BME280;72027;47.420;9.310;2023-12-20T04:38:12;93535.09;;;2.35;87.94
82388;BME280;72027;47.420;9.310;2023-12-20T04:40:41;93543.75;;;2.30;87.62
82388;BME280;72027;47.420;9.310;2023-12-20T04:43:09;93555.06;;;2.29;88.35
82388;BME280;72027;47.420;9.310;2023-12-20T04:45:37;93558.22;;;2.27;88.34
82388;BME280;72027;47.420;9.310;2023-12-20T04:48:05;93559.00;;;2.28;88.98
82388;BME280;72027;47.420;9.310;2023-12-20T04:50:33;93566.06;;;2.25;89.87
82388;BME280;72027;47.420;9.310;2023-12-20T04:53:01;93566.47;;;2.24;90.96
82388;BME280;72027;47.420;9.310;2023-12-20T04:55:29;93572.75;;;2.20;90.90
82388;BME280;72027;47.420;9.310;2023-12-20T04:57:58;93577.06;;;2.18;91.59
82388;BME280;72027;47.420;9.310;2023-12-20T05:00:26;93577.44;;;2.20;92.25
82388;BME280;72027;47.420;9.310;2023-12-20T05:02:54;93588.00;;;2.18;92.47
82388;BME280;72027;47.420;9.310;2023-12-20T05:05:21;93590.72;;;2.18;93.02
82388;BME280;72027;47.420;9.310;2023-12-20T05:07:50;93595.88;;;2.12;92.64
82388;BME280;72027;47.420;9.310;2023-12-20T05:10:19;93597.88;;;2.08;93.70
82388;BME280;72027;47.420;9.310;2023-12-20T05:12:46;93600.63;;;2.05;93.65
82388;BME280;72027;47.420;9.310;2023-12-20T05:15:16;93601.47;;;2.02;94.19
82388;BME280;72027;47.420;9.310;2023-12-20T05:17:43;93615.13;;;2.02;93.86
82388;BME280;72027;47.420;9.310;2023-12-20T05:20:12;93603.03;;;1.99;94.40
82388;BME280;72027;47.420;9.310;2023-12-20T05:22:41;93612.38;;;2.02;94.57
82388;BME280;72027;47.420;9.310;2023-12-20T05:25:09;93613.25;;;1.95;94.61
82388;BME280;72027;47.420;9.310;2023-12-20T05:27:36;93610.53;;;1.91;94.84
82388;BME280;72027;47.420;9.310;2023-12-20T05:30:05;93615.66;;;1.89;94.97
82388;BME280;72027;47.420;9.310;2023-12-20T05:32:34;93609.03;;;1.87;95.12
82388;BME280;72027;47.420;9.310;2023-12-20T05:35:02;93615.72;;;1.82;95.32
82388;BME280;72027;47.420;9.310;2023-12-20T05:37:30;93612.22;;;1.78;95.79
82388;BME280;72027;47.420;9.310;2023-12-20T05:39:59;93618.88;;;1.77;95.14
82388;BME280;72027;47.420;9.310;2023-12-20T05:42:26;93623.63;;;1.73;95.97
82388;BME280;72027;47.420;9.310;2023-12-20T05:44:54;93629.84;;;1.70;95.69
82388;BME280;72027;47.420;9.310;2023-12-20T05:47:24;93631.44;;;1.67;96.14
82388;BME280;72027;47.420;9.310;2023-12-20T05:49:53;93633.81;;;1.65;95.19
82388;BME280;72027;47.420;9.310;2023-12-20T05:52:21;93635.75;;;1.65;95.38
82388;BME280;72027;47.420;9.310;2023-12-20T05:54:49;93632.69;;;1.63;95.56
82388;BME280;72027;47.420;9.310;2023-12-20T05:57:17;93633.84;;;1.62;95.42
82388;BME280;72027;47.420;9.310;2023-12-20T05:59:44;93639.72;;;1.60;95.79
82388;BME280;72027;47.420;9.310;2023-12-20T06:02:12;93640.09;;;1.59;95.27
82388;BME280;72027;47.420;9.310;2023-12-20T06:04:42;93641.69;;;1.56;95.68
82388;BME280;72027;47.420;9.310;2023-12-20T06:07:12;93637.81;;;1.53;95.05
82388;BME280;72027;47.420;9.310;2023-12-20T06:09:40;93644.44;;;1.52;95.67
82388;BME280;72027;47.420;9.310;2023-12-20T06:12:08;93653.44;;;1.49;95.42
82388;BME280;72027;47.420;9.310;2023-12-20T06:14:36;93648.00;;;1.46;95.26
82388;BME280;72027;47.420;9.310;2023-12-20T06:17:04;93659.72;;;1.43;94.78
82388;BME280;72027;47.420;9.310;2023-12-20T06:19:32;93653.50;;;1.42;94.85
82388;BME280;72027;47.420;9.310;2023-12-20T06:22:00;93653.53;;;1.39;94.28
82388;BME280;72027;47.420;9.310;2023-12-20T06:24:29;93652.78;;;1.35;94.56
82388;BME280;72027;47.420;9.310;2023-12-20T06:26:57;93653.53;;;1.35;95.29
82388;BME280;72027;47.420;9.310;2023-12-20T06:29:24;93653.53;;;1.35;95.18
82388;BME280;72027;47.420;9.310;2023-12-20T06:31:52;93647.34;;;1.31;95.00
82388;BME280;72027;47.420;9.310;2023-12-20T06:34:20;93657.88;;;1.29;95.20
82388;BME280;72027;47.420;9.310;2023-12-20T06:36:48;93651.66;;;1.28;95.38
82388;BME280;72027;47.420;9.310;2023-12-20T06:39:16;93654.38;;;1.25;95.42
82388;BME280;72027;47.420;9.310;2023-12-20T06:41:45;93647.38;;;1.24;94.73
82388;BME280;72027;47.420;9.310;2023-12-20T06:44:12;93655.97;;;1.22;94.64
82388;BME280;72027;47.420;9.310;2023-12-20T06:46:40;93658.69;;;1.22;95.23
82388;BME280;72027;47.420;9.310;2023-12-20T06:49:08;93655.63;;;1.20;95.24
82388;BME280;72027;47.420;9.310;2023-12-20T06:51:36;93661.06;;;1.20;95.60
82388;BME280;72027;47.420;9.310;2023-12-20T06:54:04;93675.47;;;1.21;94.63
82388;BME280;72027;47.420;9.310;2023-12-20T06:56:32;93685.22;;;1.22;95.36
82388;BME280;72027;47.420;9.310;2023-12-20T06:59:01;93674.28;;;1.22;95.54
82388;BME280;72027;47.420;9.310;2023-12-20T07:01:29;93673.13;;;1.23;95.84
82388;BME280;72027;47.420;9.310;2023-12-20T07:03:56;93664.94;;;1.23;95.26
82388;BME280;72027;47.420;9.310;2023-12-20T07:06:24;93661.81;;;1.24;95.41
82388;BME280;72027;47.420;9.310;2023-12-20T07:08:52;93677.78;;;1.26;95.81
82388;BME280;72027;47.420;9.310;2023-12-20T07:11:20;93681.28;;;1.26;95.45
82388;BME280;72027;47.420;9.310;2023-12-20T07:13:48;93685.19;;;1.29;95.65
82388;BME280;72027;47.420;9.310;2023-12-20T07:16:17;93690.25;;;1.27;95.47
82388;BME280;72027;47.420;9.310;2023-12-20T07:18:45;93684.03;;;1.26;96.12
82388;BME280;72027;47.420;9.310;2023-12-20T07:21:13;93679.34;;;1.27;95.33
82388;BME280;72027;47.420;9.310;2023-12-20T07:23:42;93686.38;;;1.28;95.79
82388;BME280;72027;47.420;9.310;2023-12-20T07:26:10;93686.38;;;1.28;96.46
82388;BME280;72027;47.420;9.310;2023-12-20T07:28:38;93682.47;;;1.25;96.32
82388;BME280;72027;47.420;9.310;2023-12-20T07:31:05;93690.66;;;1.25;96.29
82388;BME280;72027;47.420;9.310;2023-12-20T07:33:35;93680.91;;;1.28;96.68
82388;BME280;72027;47.420;9.310;2023-12-20T07:36:05;93685.19;;;1.29;96.12
82388;BME280;72027;47.420;9.310;2023-12-20T07:38:33;93681.25;;;1.30;96.34
82388;BME280;72027;47.420;9.310;2023-12-20T07:41:00;93688.28;;;1.31;96.63
82388;BME280;72027;47.420;9.310;2023-12-20T07:43:28;93697.22;;;1.35;96.73
82388;BME280;72027;47.420;9.310;2023-12-20T07:45:56;93708.91;;;1.36;96.26
82388;BME280;72027;47.420;9.310;2023-12-20T07:48:24;93708.53;;;1.37;95.65
82388;BME280;72027;47.420;9.310;2023-12-20T07:50:53;93706.16;;;1.39;96.11
82388;BME280;72027;47.420;9.310;2023-12-20T07:53:21;93705.75;;;1.41;95.79
82388;BME280;72027;47.420;9.310;2023-12-20T07:55:48;93699.53;;;1.44;96.33
82388;BME280;72027;47.420;9.310;2023-12-20T07:58:16;93706.13;;;1.43;95.66
82388;BME280;72027;47.420;9.310;2023-12-20T08:00:44;93694.44;;;1.42;96.32
82388;BME280;72027;47.420;9.310;2023-12-20T08:03:12;93692.09;;;1.44;96.56
82388;BME280;72027;47.420;9.310;2023-12-20T08:05:39;93698.34;;;1.45;96.16
82388;BME280;72027;47.420;9.310;2023-12-20T08:08:09;93708.88;;;1.46;96.69
82388;BME280;72027;47.420;9.310;2023-12-20T08:10:36;93722.09;;;1.48;96.67
82388;BME280;72027;47.420;9.310;2023-12-20T08:13:04;93713.53;;;1.49;96.22
82388;BME280;72027;47.420;9.310;2023-12-20T08:15:32;93725.22;;;1.50;96.54
82388;BME280;72027;47.420;9.310;2023-12-20T08:18:00;93724.78;;;1.51;96.16
82388;BME280;72027;47.420;9.310;2023-12-20T08:20:28;93719.34;;;1.51;96.62
82388;BME280;72027;47.420;9.310;2023-12-20T08:22:58;93715.81;;;1.54;96.70
82388;BME280;72027;47.420;9.310;2023-12-20T08:25:28;93709.19;;;1.56;96.08
82388;BME280;72027;47.420;9.310;2023-12-20T08:27:56;93708.00;;;1.57;96.88
82388;BME280;72027;47.420;9.310;2023-12-20T08:30:24;93716.94;;;1.61;96.83
82388;BME280;72027;47.420;9.310;2023-12-20T08:32:51;93714.59;;;1.63;96.20
82388;BME280;72027;47.420;9.310;2023-12-20T08:35:19;93708.72;;;1.64;96.52
82388;BME280;72027;47.420;9.310;2023-12-20T08:37:47;93712.22;;;1.68;96.78
82388;BME280;72027;47.420;9.310;2023-12-20T08:40:15;93707.53;;;1.69;96.97
82388;BME280;72027;47.420;9.310;2023-12-20T08:42:44;93713.38;;;1.71;96.89
82388;BME280;72027;47.420;9.310;2023-12-20T08:45:12;93712.13;;;1.75;97.41
82388;BME280;72027;47.420;9.310;2023-12-20T08:47:39;93725.78;;;1.79;96.55
82388;BME280;72027;47.420;9.310;2023-12-20T08:50:08;93721.47;;;1.82;96.49
82388;BME280;72027;47.420;9.310;2023-12-20T08:52:35;93720.28;;;1.86;96.29
82388;BME280;72027;47.420;9.310;2023-12-20T08:55:04;93717.88;;;1.92;96.90
82388;BME280;72027;47.420;9.310;2023-12-20T08:57:32;93714.72;;;1.97;97.10
82388;BME280;72027;47.420;9.310;2023-12-20T09:00:02;93715.81;;;2.03;96.44
82388;BME280;72027;47.420;9.310;2023-12-20T09:02:32;93716.16;;;2.09;96.40
82388;BME280;72027;47.420;9.310;2023-12-20T09:05:02;93713.34;;;2.19;96.77
82388;BME280;72027;47.420;9.310;2023-12-20T09:07:30;93710.53;;;2.27;96.66
82388;BME280;72027;47.420;9.310;2023-12-20T09:09:58;93712.78;;;2.35;96.02
82388;BME280;72027;47.420;9.310;2023-12-20T09:12:26;93715.41;;;2.46;96.41
82388;BME280;72027;47.420;9.310;2023-12-20T09:14:54;93710.97;;;2.59;97.22
82388;BME280;72027;47.420;9.310;2023-12-20T09:17:23;93708.50;;;2.72;95.81
82388;BME280;72027;47.420;9.310;2023-12-20T09:19:52;93702.91;;;2.83;95.86
82388;BME280;72027;47.420;9.310;2023-12-20T09:22:20;93698.06;;;2.94;95.33
82388;BME280;72027;47.420;9.310;2023-12-20T09:24:48;93706.50;;;3.07;95.72
82388;BME280;72027;47.420;9.310;2023-12-20T09:27:16;93693.44;;;3.18;95.16
82388;BME280;72027;47.420;9.310;2023-12-20T09:29:44;93696.09;;;3.25;94.40
82388;BME280;72027;47.420;9.310;2023-12-20T09:32:11;93693.59;;;3.35;94.18
82388;BME280;72027;47.420;9.310;2023-12-20T09:34:40;93697.09;;;3.39;94.17
82388;BME280;72027;47.420;9.310;2023-12-20T09:37:09;93705.66;;;3.41;93.54
82388;BME280;72027;47.420;9.310;2023-12-20T09:39:37;93702.88;;;3.44;94.20
82388;BME280;72027;47.420;9.310;2023-12-20T09:42:06;93695.78;;;3.47;93.57
82388;BME280;72027;47.420;9.310;2023-12-20T09:44:34;93701.66;;;3.45;93.05
82388;BME280;72027;47.420;9.310;2023-12-20T09:47:02;93702.88;;;3.44;92.67
82388;BME280;72027;47.420;9.310;2023-12-20T09:49:30;93705.66;;;3.41;93.63
82388;BME280;72027;47.420;9.310;2023-12-20T09:52:02;93715.06;;;3.40;93.12
82388;BME280;72027;47.420;9.310;2023-12-20T09:54:32;93713.91;;;3.37;92.84
82388;BME280;72027;47.420;9.310;2023-12-20T09:57:00;93706.13;;;3.36;93.44
82388;BME280;72027;47.420;9.310;2023-12-20T09:59:28;93704.22;;;3.33;93.60
82388;BME280;72027;47.420;9.310;2023-12-20T10:01:55;93706.97;;;3.33;93.10
82388;BME280;72027;47.420;9.310;2023-12-20T10:04:24;93698.38;;;3.30;92.81
82388;BME280;72027;47.420;9.310;2023-12-20T10:06:55;93695.28;;;3.28;93.47
82388;BME280;72027;47.420;9.310;2023-12-20T10:09:24;93701.94;;;3.27;93.13
82388;BME280;72027;47.420;9.310;2023-12-20T10:11:54;93699.22;;;3.24;93.17
82388;BME280;72027;47.420;9.310;2023-12-20T10:14:23;93696.97;;;3.19;93.39
82388;BME280;72027;47.420;9.310;2023-12-20T10:16:51;93699.75;;;3.15;92.95
82388;BME280;72027;47.420;9.310;2023-12-20T10:19:20;93696.63;;;3.17;92.98
82388;BME280;72027;47.420;9.310;2023-12-20T10:21:47;93693.50;;;3.15;93.70
82388;BME280;72027;47.420;9.310;2023-12-20T10:24:17;93686.06;;;3.15;94.01
82388;BME280;72027;47.420;9.310;2023-12-20T10:26:46;93681.00;;;3.14;93.53
82388;BME280;72027;47.420;9.310;2023-12-20T10:29:14;93683.78;;;3.10;94.08
82388;BME280;72027;47.420;9.310;2023-12-20T10:31:42;93676.78;;;3.09;94.43
82388;BME280;72027;47.420;9.310;2023-12-20T10:34:11;93680.34;;;3.06;94.32
82388;BME280;72027;47.420;9.310;2023-12-20T10:36:39;93677.25;;;3.00;94.39
82388;BME280;72027;47.420;9.310;2023-12-20T10:39:08;93669.88;;;2.97;94.58
82388;BME280;72027;47.420;9.310;2023-12-20T10:41:38;93659.69;;;2.98;94.62
82388;BME280;72027;47.420;9.310;2023-12-20T10:44:10;93655.09;;;2.91;94.81
82388;BME280;72027;47.420;9.310;2023-12-20T10:46:39;93654.03;;;2.85;94.53
82388;BME280;72027;47.420;9.310;2023-12-20T10:49:08;93648.53;;;2.85;94.73
82388;BME280;72027;47.420;9.310;2023-12-20T10:51:37;93650.16;;;2.79;95.14
82388;BME280;72027;47.420;9.310;2023-12-20T10:54:05;93644.69;;;2.79;95.42
82388;BME280;72027;47.420;9.310;2023-12-20T10:56:36;93641.56;;;2.80;95.69
82388;BME280;72027;47.420;9.310;2023-12-20T10:59:06;93636.91;;;2.77;95.42
82388;BME280;72027;47.420;9.310;2023-12-20T11:01:40;93643.56;;;2.76;95.70
82388;BME280;72027;47.420;9.310;2023-12-20T11:04:14;93639.66;;;2.77;95.64
82388;BME280;72027;47.420;9.310;2023-12-20T11:06:48;93635.72;;;2.78;95.16
82388;BME280;72027;47.420;9.310;2023-12-20T11:09:22;93634.94;;;2.78;95.93
82388;BME280;72027;47.420;9.310;2023-12-20T11:12:05;93641.94;;;2.82;95.71
82388;BME280;72027;47.420;9.310;2023-12-20T11:14:40;93638.81;;;2.80;95.56
82388;BME280;72027;47.420;9.310;2023-12-20T11:17:11;93630.63;;;2.80;95.69
82388;BME280;72027;47.420;9.310;2023-12-20T11:20:05;93631.81;;;2.79;95.35
82388;BME280;72027;47.420;9.310;2023-12-20T11:22:34;93623.59;;;2.79;95.30
82388;BME280;72027;47.420;9.310;2023-12-20T11:25:05;93625.53;;;2.82;94.94
82388;BME280;72027;47.420;9.310;2023-12-20T11:27:35;93629.41;;;2.85;95.11
82388;BME280;72027;47.420;9.310;2023-12-20T11:30:04;93623.91;;;2.85;95.50
82388;BME280;72027;47.420;9.310;2023-12-20T11:32:35;93621.13;;;2.89;95.14
82388;BME280;72027;47.420;9.310;2023-12-20T11:35:17;93629.34;;;2.89;94.56
82388;BME280;72027;47.420;9.310;2023-12-20T11:37:46;93639.09;;;2.90;94.37
82388;BME280;72027;47.420;9.310;2023-12-20T11:40:16;93628.56;;;2.88;94.68
82388;BME280;72027;47.420;9.310;2023-12-20T11:42:45;93624.25;;;2.87;94.77
82388;BME280;72027;47.420;9.310;2023-12-20T11:45:18;93631.00;;;2.82;94.39
82388;BME280;72027;47.420;9.310;2023-12-20T11:47:48;93635.69;;;2.82;94.40
82388;BME280;72027;47.420;9.310;2023-12-20T11:50:17;93638.00;;;2.83;94.22
82388;BME280;72027;47.420;9.310;2023-12-20T11:52:46;93630.22;;;2.82;94.29
82388;BME280;72027;47.420;9.310;2023-12-20T11:55:14;93628.25;;;2.82;94.46
82388;BME280;72027;47.420;9.310;2023-12-20T11:57:42;93629.78;;;2.83;94.59
82388;BME280;72027;47.420;9.310;2023-12-20T12:00:11;93627.56;;;2.75;94.73
82388;BME280;72027;47.420;9.310;2023-12-20T12:02:39;93629.25;;;2.65;94.95
82388;BME280;72027;47.420;9.310;2023-12-20T12:05:08;93632.44;;;2.60;95.54
82388;BME280;72027;47.420;9.310;2023-12-20T12:07:37;93623.84;;;2.58;95.43
82388;BME280;72027;47.420;9.310;2023-12-20T12:10:06;93622.69;;;2.59;95.63
82388;BME280;72027;47.420;9.310;2023-12-20T12:12:34;93634.03;;;2.57;95.81
82388;BME280;72027;47.420;9.310;2023-12-20T12:15:03;93630.91;;;2.55;95.90
82388;BME280;72027;47.420;9.310;2023-12-20T12:17:31;93633.69;;;2.52;96.40
82388;BME280;72027;47.420;9.310;2023-12-20T12:20:05;93616.56;;;2.48;96.48
82388;BME280;72027;47.420;9.310;2023-12-20T12:22:34;93623.59;;;2.49;97.15
82388;BME280;72027;47.420;9.310;2023-12-20T12:25:10;93623.25;;;2.43;96.76
82388;BME280;72027;47.420;9.310;2023-12-20T12:27:40;93625.25;;;2.39;96.76
82388;BME280;72027;47.420;9.310;2023-12-20T12:30:09;93622.53;;;2.39;96.48
82388;BME280;72027;47.420;9.310;2023-12-20T12:32:39;93629.19;;;2.38;97.34
82388;BME280;72027;47.420;9.310;2023-12-20T12:35:08;93621.38;;;2.36;97.47
82388;BME280;72027;47.420;9.310;2023-12-20T12:37:39;93617.50;;;2.34;96.94
82388;BME280;72027;47.420;9.310;2023-12-20T12:40:10;93616.72;;;2.33;96.85
82388;BME280;72027;47.420;9.310;2023-12-20T12:42:39;93618.25;;;2.38;97.80
82388;BME280;72027;47.420;9.310;2023-12-20T12:45:07;93617.47;;;2.37;97.66
82388;BME280;72027;47.420;9.310;2023-12-20T12:47:36;93626.06;;;2.39;98.02
82388;BME280;72027;47.420;9.310;2023-12-20T12:50:05;93612.78;;;2.38;97.27
82388;BME280;72027;47.420;9.310;2023-12-20T12:52:33;93615.56;;;2.34;97.49
82388;BME280;72027;47.420;9.310;2023-12-20T12:55:03;93612.41;;;2.36;97.80
82388;BME280;72027;47.420;9.310;2023-12-20T12:57:32;93617.56;;;2.30;97.63
82388;BME280;72027;47.420;9.310;2023-12-20T13:00:00;93618.75;;;2.29;97.45
82388;BME280;72027;47.420;9.310;2023-12-20T13:02:29;93629.31;;;2.27;96.75
82388;BME280;72027;47.420;9.310;2023-12-20T13:04:57;93621.47;;;2.29;96.61
82388;BME280;72027;47.420;9.310;2023-12-20T13:07:25;93624.56;;;2.31;96.72
82388;BME280;72027;47.420;9.310;2023-12-20T13:09:53;93622.97;;;2.34;96.60
82388;BME280;72027;47.420;9.310;2023-12-20T13:12:23;93616.72;;;2.33;96.69
82388;BME280;72027;47.420;9.310;2023-12-20T13:14:50;93624.56;;;2.31;96.29
82388;BME280;72027;47.420;9.310;2023-12-20T13:17:18;93614.41;;;2.32;96.01